M I D A S
Marine Information and Data Acquisition System
Tripno 1297 of the Zeeleeuw from 2007-07-03 06:32:08 to 2007-07-03 15:22:59
Back to CruiseResearch ActivitiesStationsMapUnderway DataData graphs

EquipmentUnitsComments
TimeDGPSUTC
LatitudeDGPSDM.mWGS84
LongitudeDGPSDM.mWGS84
SpeedMeteo Stationm/sRelative wind speed
DirectionMeteo StationdegRelative wind direction
TemperatureMeteo Stationdeg CelciusAir temperature
PressureMeteo StationPaAtmospheric pressure
HumidityMeteo Station%Relative humidity
Missing or incorrect values are displayed as -999
Metereological data collected by the RV Zeeleeuw from 2007-07-03 06:30:31 to 2007-07-03 15:33:31
Time Latitude Longitude Speed Direction Temperature Pressure Humidity
2007-07-03 06:31 51°13.618 2°56.022 1.1 26 13.1 100240 100
2007-07-03 06:32 51°13.662 2°55.908 4.7 25 13.1 100230 100
2007-07-03 06:33 51°13.686 2°55.825 4 31 13.1 100240 100
2007-07-03 06:34 51°13.687 2°55.768 6.3 39 13.1 100240 100
2007-07-03 06:35 51°13.684 2°55.73 1.8 22 13.1 100230 100
2007-07-03 06:36 51°13.722 2°55.722 3.5 309 13.1 100230 100
2007-07-03 06:37 51°13.822 2°55.642 1.4 38 13.2 100230 100
2007-07-03 06:38 51°13.944 2°55.555 2.3 308 13.2 100230 100
2007-07-03 06:39 51°14.078 2°55.456 2.6 316 13.2 100220 100
2007-07-03 06:40 51°14.223 2°55.32 4 321 13.2 100230 100
2007-07-03 06:41 51°14.35 2°55.094 6.8 319 13.2 100220 100
2007-07-03 06:42 51°14.421 2°54.781 11.2 36 13.2 100190 100
2007-07-03 06:43 51°14.397 2°54.431 13.9 319 13.3 100190 100
2007-07-03 06:44 51°14.29 2°54.121 15.5 317 13.3 100180 100
2007-07-03 06:45 51°14.178 2°53.808 12.4 304 13.4 100180 100
2007-07-03 06:46 51°14.065 2°53.493 14.3 319 13.4 100180 100
2007-07-03 06:47 51°13.953 2°53.178 15.6 320 13.4 100180 100
2007-07-03 06:48 51°13.843 2°52.861 14.3 318 13.4 100180 100
2007-07-03 06:49 51°13.73 2°52.548 14.8 318 13.4 100180 100
2007-07-03 06:50 51°13.617 2°52.236 14.3 306 13.4 100190 100
2007-07-03 06:51 51°13.506 2°51.922 17.4 316 13.4 100180 100
2007-07-03 06:52 51°13.394 2°51.607 13.6 319 13.4 100180 100
2007-07-03 06:53 51°13.281 2°51.296 16 320 13.4 100170 100
2007-07-03 06:54 51°13.161 2°50.993 15.8 321 13.4 100180 100
2007-07-03 06:55 51°13.042 2°50.688 13 321 13.4 100190 100
2007-07-03 06:56 51°12.922 2°50.384 13.2 321 13.4 100190 100
2007-07-03 06:57 51°12.802 2°50.08 14.7 319 13.4 100190 100
2007-07-03 06:58 51°12.682 2°49.776 13.2 321 13.4 100180 100
2007-07-03 06:59 51°12.569 2°49.465 14.5 320 13.4 100180 100
2007-07-03 07:00 51°12.456 2°49.155 15.3 320 13.3 100190 100
2007-07-03 07:01 51°12.344 2°48.844 14.2 323 13.4 100190 100
2007-07-03 07:02 51°12.236 2°48.53 14.6 316 13.3 100180 100
2007-07-03 07:03 51°12.155 2°48.195 14.2 316 13.4 100190 100
2007-07-03 07:04 51°12.072 2°47.859 15.3 318 13.4 100190 100
2007-07-03 07:05 51°11.991 2°47.522 14.8 38 13.4 100180 100
2007-07-03 07:06 51°11.909 2°47.184 16.1 317 13.4 100170 100
2007-07-03 07:07 51°11.827 2°46.844 15.6 322 13.5 100180 100
2007-07-03 07:08 51°11.748 2°46.501 14.3 33 13.5 100180 100
2007-07-03 07:09 51°11.682 2°46.152 17.2 316 13.5 100170 100
2007-07-03 07:10 51°11.618 2°45.802 15.2 319 13.5 100180 100
2007-07-03 07:11 51°11.559 2°45.452 15.9 319 13.6 100170 100
2007-07-03 07:12 51°11.499 2°45.102 13.9 318 13.6 100170 100
2007-07-03 07:13 51°11.438 2°44.75 14.6 319 13.6 100170 100
2007-07-03 07:14 51°11.38 2°44.398 15.3 319 13.6 100170 100
2007-07-03 07:15 51°11.32 2°44.048 15.5 318 13.5 100160 100
2007-07-03 07:16 51°11.26 2°43.696 15.1 317 13.6 100170 100
2007-07-03 07:17 51°11.2 2°43.342 13.4 36 13.6 100170 100
2007-07-03 07:18 51°11.139 2°42.988 14.2 318 13.7 100170 100
2007-07-03 07:19 51°11.073 2°42.638 14.8 316 13.7 100160 100
2007-07-03 07:20 51°11.082 2°42.357 12.3 238 13.7 100160 100
2007-07-03 07:21 51°11.082 2°42.191 12.4 242 13.7 100180 100
2007-07-03 07:22 51°11.089 2°42.089 11.6 254 13.7 100180 100
2007-07-03 07:23 51°11.089 2°42.072 7.9 267 13.7 100190 100
2007-07-03 07:24 51°11.089 2°42.057 8 267 13.7 100200 100
2007-07-03 07:25 51°11.091 2°42.043 9.8 358 13.9 100190 100
2007-07-03 07:26 51°11.094 2°42.026 8 270 13.8 100200 100
2007-07-03 07:27 51°11.098 2°42.011 8.6 270 13.7 100190 99
2007-07-03 07:28 51°11.103 2°41.994 9.1 269 13.8 100190 100
2007-07-03 07:29 51°11.107 2°41.976 5.9 265 13.7 100190 99
2007-07-03 07:30 51°11.113 2°41.955 6.2 262 13.8 100190 100
2007-07-03 07:31 51°11.124 2°41.843 12.1 35 13.8 100190 100
2007-07-03 07:32 51°11.075 2°41.595 15.3 317 13.8 100170 100
2007-07-03 07:33 51°11.013 2°41.271 12.9 320 13.8 100160 99
2007-07-03 07:34 51°10.946 2°40.923 14.8 318 13.8 100160 99
2007-07-03 07:35 51°10.881 2°40.572 14.7 318 13.9 100160 99
2007-07-03 07:36 51°10.814 2°40.22 14.2 318 13.9 100160 99
2007-07-03 07:37 51°10.749 2°39.866 14.5 318 13.9 100160 99
2007-07-03 07:38 51°10.684 2°39.514 13 317 13.9 100160 98
2007-07-03 07:39 51°10.619 2°39.159 12.5 320 14 100160 98
2007-07-03 07:40 51°10.553 2°38.804 16.7 320 14.1 100140 98
2007-07-03 07:41 51°10.488 2°38.451 14 317 14 100130 98
2007-07-03 07:42 51°10.422 2°38.096 14.5 34 14.1 100140 98
2007-07-03 07:43 51°10.357 2°37.74 14.8 317 14.1 100130 98
2007-07-03 07:44 51°10.291 2°37.382 15.4 318 14.2 100140 98
2007-07-03 07:45 51°10.225 2°37.025 14.9 317 14.1 100140 97
2007-07-03 07:46 51°10.16 2°36.668 16.7 320 14.1 100140 96
2007-07-03 07:47 51°10.106 2°36.305 14.2 317 14.1 100130 96
2007-07-03 07:48 51°10.142 2°35.949 12.4 243 14.2 100120 96
2007-07-03 07:49 51°10.302 2°35.725 5.5 249 14.2 100150 96
2007-07-03 07:50 51°10.498 2°35.742 1.6 34 14.3 100170 96
2007-07-03 07:51 51°10.673 2°35.9 2.2 36 14.3 100180 96
2007-07-03 07:52 51°10.847 2°36.063 2.4 39 14.3 100180 95
2007-07-03 07:53 51°11.021 2°36.226 2 33 14.3 100170 95
2007-07-03 07:54 51°11.194 2°36.393 2.3 35 14.4 100170 95
2007-07-03 07:55 51°11.368 2°36.557 1.9 38 14.3 100170 95
2007-07-03 07:56 51°11.54 2°36.722 2.7 31 14.4 100170 95
2007-07-03 07:57 51°11.713 2°36.887 2.2 34 14.4 100170 94
2007-07-03 07:58 51°11.886 2°37.05 1.1 39 14.4 100170 94
2007-07-03 07:59 51°12.058 2°37.215 2.6 37 14.6 100170 95
2007-07-03 08:00 51°12.233 2°37.381 1.5 37 14.7 100170 95
2007-07-03 08:01 51°12.402 2°37.545 1.3 31 14.7 100170 94
2007-07-03 08:02 51°12.575 2°37.707 0.7 360 14.8 100170 95
2007-07-03 08:03 51°12.747 2°37.874 3 40 14.9 100170 94
2007-07-03 08:04 51°12.92 2°38.041 1.6 32 14.8 100170 93
2007-07-03 08:05 51°13.093 2°38.205 2.3 35 14.8 100160 93
2007-07-03 08:06 51°13.266 2°38.371 4 32 14.8 100170 93
2007-07-03 08:07 51°13.44 2°38.534 2.7 34 14.8 100160 91
2007-07-03 08:08 51°13.614 2°38.698 2.4 32 14.8 100160 91
2007-07-03 08:09 51°13.791 2°38.855 3.3 39 14.8 100160 91
2007-07-03 08:10 51°13.985 2°38.934 6 260 14.7 100160 90
2007-07-03 08:11 51°14.183 2°38.833 9.1 251 14.8 100150 91
2007-07-03 08:12 51°14.377 2°38.676 7.5 254 14.8 100140 91
2007-07-03 08:13 51°14.57 2°38.528 12.8 256 14.8 100140 91
2007-07-03 08:14 51°14.762 2°38.384 8 252 14.8 100140 91
2007-07-03 08:15 51°14.955 2°38.244 12.6 255 14.8 100140 91
2007-07-03 08:16 51°15.146 2°38.101 7.9 255 14.9 100140 91
2007-07-03 08:17 51°15.339 2°37.959 10.9 253 14.8 100140 91
2007-07-03 08:18 51°15.537 2°37.813 9 257 14.8 100140 91
2007-07-03 08:19 51°15.73 2°37.671 8.7 255 14.8 100140 91
2007-07-03 08:20 51°15.923 2°37.522 12 254 14.8 100130 91
2007-07-03 08:21 51°16.119 2°37.369 8.4 251 14.7 100130 91
2007-07-03 08:22 51°16.311 2°37.197 9.2 252 14.8 100120 91
2007-07-03 08:23 51°16.462 2°37.032 9.4 251 14.8 100140 91
2007-07-03 08:24 51°16.539 2°36.889 8.2 262 14.8 100110 91
2007-07-03 08:25 51°16.583 2°36.788 10.6 261 14.8 100110 91
2007-07-03 08:26 51°16.581 2°36.762 8.1 261 14.7 100110 91
2007-07-03 08:27 51°16.574 2°36.749 10.3 267 14.7 100120 91
2007-07-03 08:28 51°16.567 2°36.735 10.3 270 14.6 100120 92
2007-07-03 08:29 51°16.562 2°36.719 10.7 29 14.7 100120 93
2007-07-03 08:30 51°16.558 2°36.701 10.7 267 14.6 100130 93
2007-07-03 08:31 51°16.553 2°36.683 7.6 267 14.5 100120 93
2007-07-03 08:32 51°16.549 2°36.666 10.4 262 14.5 100120 93
2007-07-03 08:33 51°16.548 2°36.644 7.5 261 14.5 100100 93
2007-07-03 08:34 51°16.627 2°36.519 9.8 256 14.5 100130 94
2007-07-03 08:35 51°16.76 2°36.277 8.6 250 14.6 100100 94
2007-07-03 08:36 51°16.917 2°36.027 10.4 249 14.6 100110 94
2007-07-03 08:37 51°17.077 2°35.806 9.6 255 14.6 100100 94
2007-07-03 08:38 51°17.238 2°35.577 10.6 250 14.6 100110 94
2007-07-03 08:39 51°17.4 2°35.342 8.7 248 14.6 100100 94
2007-07-03 08:40 51°17.556 2°35.086 12 246 14.7 100100 94
2007-07-03 08:41 51°17.709 2°34.82 12.1 243 14.7 100090 94
2007-07-03 08:42 51°17.852 2°34.536 14.8 247 14.7 100090 94
2007-07-03 08:43 51°17.991 2°34.251 10.1 249 14.7 100080 93
2007-07-03 08:44 51°18.129 2°33.967 11.7 246 14.7 100080 93
2007-07-03 08:45 51°18.271 2°33.68 15.2 242 14.7 100070 93
2007-07-03 08:46 51°18.411 2°33.402 13.1 247 14.7 100070 94
2007-07-03 08:47 51°18.547 2°33.127 14.5 243 14.6 100070 93
2007-07-03 08:48 51°18.683 2°32.842 11.7 245 14.6 100080 94
2007-07-03 08:49 51°18.813 2°32.566 16.2 245 14.5 100060 94
2007-07-03 08:50 51°18.943 2°32.284 10.1 244 14.5 100080 95
2007-07-03 08:51 51°19.075 2°32.005 12.9 245 14.4 100070 95
2007-07-03 08:52 51°19.205 2°31.725 13.7 244 14.3 100070 96
2007-07-03 08:53 51°19.331 2°31.437 14.6 244 14.3 100070 96
2007-07-03 08:54 51°19.46 2°31.15 13.2 246 14.3 100060 97
2007-07-03 08:55 51°19.591 2°30.864 12.1 247 14.3 100060 97
2007-07-03 08:56 51°19.723 2°30.576 13.5 248 14.3 100070 97
2007-07-03 08:57 51°19.856 2°30.306 14 251 14.2 100060 98
2007-07-03 08:58 51°19.934 2°30.137 14.5 258 14.1 100080 98
2007-07-03 08:59 51°19.981 2°30.021 13.3 258 14 100080 98
2007-07-03 09:00 51°20.006 2°29.956 6.7 266 14 100090 98
2007-07-03 09:01 51°20.005 2°29.924 13.4 331 13.9 100100 98
2007-07-03 09:02 51°20.007 2°29.896 10.8 267 13.8 100090 97
2007-07-03 09:03 51°20.011 2°29.863 9.8 270 13.8 100080 97
2007-07-03 09:04 51°20.014 2°29.833 6.3 267 13.9 100080 97
2007-07-03 09:05 51°20.016 2°29.807 10.3 261 14.1 100090 97
2007-07-03 09:06 51°20.024 2°29.779 8 261 14 100090 96
2007-07-03 09:07 51°20.08 2°29.713 8.7 43 13.9 100080 96
2007-07-03 09:08 51°20.179 2°29.802 6.6 35 14 100110 96
2007-07-03 09:09 51°20.242 2°30.045 5.2 32 14.1 100100 95
2007-07-03 09:10 51°20.322 2°30.321 6.5 29 14.1 100100 95
2007-07-03 09:11 51°20.384 2°30.602 7.1 26 14 100100 94
2007-07-03 09:12 51°20.443 2°30.891 5.2 30 14 100090 94
2007-07-03 09:13 51°20.503 2°31.177 6.2 29 14.1 100060 94
2007-07-03 09:14 51°20.587 2°31.444 4.7 29 14.1 100060 94
2007-07-03 09:15 51°20.682 2°31.71 5.4 27 14.1 100060 94
2007-07-03 09:16 51°20.769 2°31.976 5.7 28 14.1 100050 93
2007-07-03 09:17 51°20.855 2°32.25 5.2 25 14.1 100050 94
2007-07-03 09:18 51°20.943 2°32.524 4.4 37 14.2 100050 94
2007-07-03 09:19 51°21.032 2°32.794 3.9 31 14.1 100050 94
2007-07-03 09:20 51°21.122 2°33.064 3.3 28 14.1 100050 94
2007-07-03 09:21 51°21.211 2°33.339 4.5 31 14.2 100050 95
2007-07-03 09:22 51°21.299 2°33.617 4.9 23 14.2 100050 94
2007-07-03 09:23 51°21.386 2°33.897 4.6 27 14.3 100060 95
2007-07-03 09:24 51°21.471 2°34.168 4.1 28 14.2 100050 95
2007-07-03 09:25 51°21.555 2°34.444 4 28 14.2 100080 95
2007-07-03 09:26 51°21.647 2°34.719 4 21 14.3 100090 95
2007-07-03 09:27 51°21.733 2°34.994 4.9 25 14.3 100080 95
2007-07-03 09:28 51°21.821 2°35.267 4.5 26 14.3 100090 95
2007-07-03 09:29 51°21.907 2°35.543 6.1 23 14.3 100080 95
2007-07-03 09:30 51°22.011 2°35.808 3.6 41 14.3 100080 95
2007-07-03 09:31 51°22.124 2°36.066 3.6 23 14.3 100080 95
2007-07-03 09:32 51°22.234 2°36.322 5.1 36 14.4 100080 95
2007-07-03 09:33 51°22.339 2°36.581 3.7 34 14.4 100080 95
2007-07-03 09:34 51°22.449 2°36.839 3.8 30 14.4 100080 95
2007-07-03 09:35 51°22.552 2°37.097 3.6 35 14.3 100080 95
2007-07-03 09:36 51°22.657 2°37.357 3.6 30 14.4 100080 95
2007-07-03 09:37 51°22.748 2°37.64 5.9 27 14.4 100070 95
2007-07-03 09:38 51°22.839 2°37.92 5 21 14.4 100080 95
2007-07-03 09:39 51°22.925 2°38.199 4.6 22 14.3 100070 95
2007-07-03 09:40 51°23.013 2°38.48 3.8 31 14.3 100080 95
2007-07-03 09:41 51°23.099 2°38.752 4.8 19 14.3 100080 95
2007-07-03 09:42 51°23.183 2°39.029 4.9 28 14.4 100080 96
2007-07-03 09:43 51°23.273 2°39.309 6 28 14.4 100080 96
2007-07-03 09:44 51°23.358 2°39.582 4.2 30 14.4 100080 96
2007-07-03 09:45 51°23.448 2°39.869 4.4 29 14.4 100070 96
2007-07-03 09:46 51°23.535 2°40.147 5.7 27 14.4 100070 96
2007-07-03 09:47 51°23.644 2°40.4 1.6 38 14.3 100070 96
2007-07-03 09:48 51°23.829 2°40.369 11.4 248 14.4 100080 97
2007-07-03 09:49 51°23.911 2°40.048 12.5 35 14.4 100050 97
2007-07-03 09:50 51°23.975 2°39.691 10.8 237 14.4 100040 97
2007-07-03 09:51 51°24.032 2°39.349 12.1 238 14.4 100040 97
2007-07-03 09:52 51°24.075 2°38.991 12.3 37 14.4 100040 97
2007-07-03 09:53 51°24.142 2°38.656 9.6 237 14.4 100040 97
2007-07-03 09:54 51°24.222 2°38.388 9.8 245 14.4 100070 97
2007-07-03 09:55 51°24.289 2°38.17 8.8 250 14.5 100040 97
2007-07-03 09:56 51°24.397 2°38.04 4.8 36 14.5 100050 97
2007-07-03 09:57 51°24.498 2°38.064 6.9 265 14.6 100060 97
2007-07-03 09:58 51°24.507 2°37.862 12.2 31 14.6 100030 97
2007-07-03 09:59 51°24.395 2°37.682 15.7 326 14.6 100020 97
2007-07-03 10:00 51°24.246 2°37.582 14.8 337 14.5 100020 96
2007-07-03 10:01 51°24.101 2°37.453 13.7 322 14.5 100030 96
2007-07-03 10:02 51°24.001 2°37.245 12.2 37 14.5 100010 96
2007-07-03 10:03 51°23.916 2°37.02 15.9 316 14.5 100010 96
2007-07-03 10:04 51°23.88 2°36.792 13.8 246 14.5 100020 96
2007-07-03 10:05 51°23.971 2°36.63 6.7 266 14.5 100060 96
2007-07-03 10:06 51°24.15 2°36.612 4.3 38 14.6 100050 96
2007-07-03 10:07 51°24.291 2°36.783 5.5 22 14.6 100040 96
2007-07-03 10:08 51°24.383 2°37.043 6.8 17 14.6 100040 96
2007-07-03 10:09 51°24.457 2°37.319 7 20 14.6 100030 96
2007-07-03 10:10 51°24.509 2°37.616 7.5 22 14.6 100040 97
2007-07-03 10:11 51°24.544 2°37.908 9.7 21 14.6 100030 97
2007-07-03 10:12 51°24.505 2°38.204 11.7 360 14.6 100030 97
2007-07-03 10:13 51°24.318 2°38.366 16.7 341 14.6 100000 97
2007-07-03 10:14 51°24.099 2°38.274 16.1 326 14.5 100010 97
2007-07-03 10:15 51°23.995 2°38.049 14.9 37 14.5 99980 97
2007-07-03 10:16 51°23.953 2°37.873 15.1 34 14.5 100010 97
2007-07-03 10:17 51°23.993 2°37.622 9 260 14.5 100050 97
2007-07-03 10:18 51°24.151 2°37.589 3.7 33 14.4 100040 96
2007-07-03 10:19 51°24.286 2°37.8 6.8 28 14.5 100030 96
2007-07-03 10:20 51°24.404 2°38.031 6.5 31 14.4 100040 96
2007-07-03 10:21 51°24.509 2°38.285 7.9 24 14.4 100040 96
2007-07-03 10:22 51°24.576 2°38.564 9.2 19 14.4 100030 96
2007-07-03 10:23 51°24.611 2°38.872 10.6 21 14.5 100030 96
2007-07-03 10:24 51°24.644 2°39.19 6.9 24 14.5 100030 96
2007-07-03 10:25 51°24.685 2°39.492 8.6 14 14.5 100040 96
2007-07-03 10:26 51°24.726 2°39.801 9 15 14.5 100030 96
2007-07-03 10:27 51°24.769 2°40.102 9 20 14.5 100030 96
2007-07-03 10:28 51°24.814 2°40.417 8.9 20 14.5 100030 96
2007-07-03 10:29 51°24.854 2°40.725 9.5 20 14.5 100040 96
2007-07-03 10:30 51°24.897 2°41.034 8.2 17 14.5 100040 96
2007-07-03 10:31 51°24.933 2°41.337 10.5 19 14.5 100040 96
2007-07-03 10:32 51°24.973 2°41.645 7.9 22 14.4 100030 96
2007-07-03 10:33 51°25.014 2°41.956 8.3 19 14.4 100030 96
2007-07-03 10:34 51°25.055 2°42.256 8.3 20 14.4 100030 95
2007-07-03 10:35 51°25.094 2°42.571 8.1 15 14.5 100030 95
2007-07-03 10:36 51°25.136 2°42.874 8.5 17 14.5 100030 96
2007-07-03 10:37 51°25.171 2°43.193 8.4 14 14.5 100030 96
2007-07-03 10:38 51°25.206 2°43.493 9.9 11 14.6 100030 96
2007-07-03 10:39 51°25.249 2°43.798 9.6 14 14.5 100030 96
2007-07-03 10:40 51°25.286 2°44.106 7.3 20 14.5 100030 96
2007-07-03 10:41 51°25.32 2°44.407 7.3 14 14.5 100030 96
2007-07-03 10:42 51°25.357 2°44.72 8.5 19 14.5 100030 96
2007-07-03 10:43 51°25.395 2°45.025 8 10 14.5 100030 96
2007-07-03 10:44 51°25.427 2°45.34 8.5 18 14.5 100030 96
2007-07-03 10:45 51°25.461 2°45.651 9.4 16 14.5 100030 96
2007-07-03 10:46 51°25.496 2°45.964 9.1 21 14.4 100030 96
2007-07-03 10:47 51°25.533 2°46.28 8.5 21 14.5 100030 96
2007-07-03 10:48 51°25.567 2°46.588 8.8 21 14.5 100030 96
2007-07-03 10:49 51°25.6 2°46.909 7.6 20 14.5 100030 96
2007-07-03 10:50 51°25.636 2°47.217 9.3 19 14.4 100030 96
2007-07-03 10:51 51°25.669 2°47.545 8.9 18 14.5 100030 96
2007-07-03 10:52 51°25.707 2°47.854 7.1 18 14.5 100030 96
2007-07-03 10:53 51°25.764 2°48.149 7.2 27 14.5 100030 97
2007-07-03 10:54 51°25.824 2°48.338 6.2 42 14.5 100040 97
2007-07-03 10:55 51°25.869 2°48.434 6 38 14.5 100040 97
2007-07-03 10:56 51°25.924 2°48.463 4 38 14.6 100040 97
2007-07-03 10:57 51°25.977 2°48.485 4.2 37 14.8 100050 97
2007-07-03 10:58 51°26.007 2°48.49 7.9 37 15.1 100050 96
2007-07-03 10:59 51°26.007 2°48.475 8.6 39 15 100030 95
2007-07-03 11:00 51°26.008 2°48.453 8.9 268 14.9 100050 94
2007-07-03 11:01 51°26.007 2°48.431 8.2 267 14.9 100040 94
2007-07-03 11:02 51°26.004 2°48.41 7.5 265 14.9 100050 94
2007-07-03 11:03 51°25.999 2°48.397 10 261 14.8 100030 94
2007-07-03 11:04 51°25.997 2°48.379 10.4 259 14.8 100050 94
2007-07-03 11:05 51°26.029 2°48.305 5.6 40 14.8 100030 94
2007-07-03 11:06 51°26.109 2°48.368 6.6 22 14.9 100030 94
2007-07-03 11:07 51°26.135 2°48.628 8.7 20 14.9 100020 94
2007-07-03 11:08 51°26.18 2°48.93 6.8 19 14.9 100020 94
2007-07-03 11:09 51°26.22 2°49.253 8.9 14 14.9 100020 94
2007-07-03 11:10 51°26.254 2°49.569 8.1 14 14.9 100010 94
2007-07-03 11:11 51°26.293 2°49.874 10.3 9 14.9 100000 94
2007-07-03 11:12 51°26.337 2°50.187 8.2 18 14.9 100010 94
2007-07-03 11:13 51°26.377 2°50.499 8 14 14.9 100010 93
2007-07-03 11:14 51°26.417 2°50.815 9.5 9 14.9 100020 93
2007-07-03 11:15 51°26.458 2°51.125 8.6 11 14.9 100020 93
2007-07-03 11:16 51°26.503 2°51.44 8.2 17 14.9 100010 93
2007-07-03 11:17 51°26.542 2°51.742 8.4 19 15 100010 94
2007-07-03 11:18 51°26.589 2°52.051 7.9 17 15 100010 94
2007-07-03 11:19 51°26.628 2°52.357 8.1 15 15 100000 94
2007-07-03 11:20 51°26.679 2°52.659 7.2 14 15 100020 94
2007-07-03 11:21 51°26.731 2°52.963 8.6 14 15 100020 94
2007-07-03 11:22 51°26.778 2°53.268 8.3 17 15 100000 94
2007-07-03 11:23 51°26.83 2°53.57 6.6 16 14.9 100010 94
2007-07-03 11:24 51°26.879 2°53.868 9.3 17 15 100010 94
2007-07-03 11:25 51°26.928 2°54.174 7.4 16 14.9 100010 94
2007-07-03 11:26 51°26.978 2°54.47 7.9 16 15 100010 94
2007-07-03 11:27 51°27.025 2°54.771 8.7 22 15 100010 94
2007-07-03 11:28 51°27.075 2°55.081 7.8 12 15 100010 94
2007-07-03 11:29 51°27.124 2°55.386 6.4 9 15 100010 95
2007-07-03 11:30 51°27.176 2°55.701 7.3 14 15 100000 95
2007-07-03 11:31 51°27.227 2°56.007 8 18 14.9 100010 95
2007-07-03 11:32 51°27.276 2°56.321 9 13 15 100010 95
2007-07-03 11:33 51°27.323 2°56.628 7.5 20 14.9 100000 95
2007-07-03 11:34 51°27.369 2°56.93 7.4 14 14.9 100000 95
2007-07-03 11:35 51°27.419 2°57.237 7.5 20 15 99990 96
2007-07-03 11:36 51°27.471 2°57.543 6.2 10 14.9 100000 96
2007-07-03 11:37 51°27.52 2°57.865 7.7 15 14.9 100000 96
2007-07-03 11:38 51°27.567 2°58.171 5.7 22 14.8 100000 96
2007-07-03 11:39 51°27.616 2°58.484 7 10 14.9 100000 96
2007-07-03 11:40 51°27.663 2°58.799 6.9 19 14.9 100000 96
2007-07-03 11:41 51°27.714 2°59.122 6.3 12 14.8 100000 96
2007-07-03 11:42 51°27.762 2°59.438 7.2 9 14.8 100000 96
2007-07-03 11:43 51°27.804 2°59.759 7.3 10 14.8 99990 96
2007-07-03 11:44 51°27.856 3°0.079 7.2 10 14.9 99990 96
2007-07-03 11:45 51°27.903 3°0.389 7.1 9 14.9 99990 97
2007-07-03 11:46 51°27.954 3°0.702 7.2 13 14.9 99990 97
2007-07-03 11:47 51°28.008 3°1.015 6.9 15 14.9 99990 97
2007-07-03 11:48 51°28.056 3°1.326 7.3 8 14.8 99990 96
2007-07-03 11:49 51°28.094 3°1.64 7.4 7 14.8 99990 96
2007-07-03 11:50 51°28.134 3°1.958 8.3 9 14.9 99990 96
2007-07-03 11:51 51°28.167 3°2.28 7.8 8 14.9 99990 96
2007-07-03 11:52 51°28.192 3°2.604 7.8 9 14.9 99990 96
2007-07-03 11:53 51°28.215 3°2.931 6.6 7 14.9 99990 96
2007-07-03 11:54 51°28.216 3°3.188 8 11 14.9 99980 96
2007-07-03 11:55 51°28.241 3°3.331 5.8 35 14.9 100000 96
2007-07-03 11:56 51°28.263 3°3.421 8 31 14.9 99990 96
2007-07-03 11:57 51°28.268 3°3.484 8.2 24 15 99990 96
2007-07-03 11:58 51°28.264 3°3.488 6.8 19 15 99990 96
2007-07-03 11:59 51°28.257 3°3.492 6.9 9 15.1 99980 96
2007-07-03 12:00 51°28.249 3°3.497 6.7 5 15.1 99980 95
2007-07-03 12:01 51°28.24 3°3.502 6.1 5 15.1 99980 96
2007-07-03 12:02 51°28.233 3°3.505 9.1 359 15.2 99970 97
2007-07-03 12:03 51°28.228 3°3.507 7.5 2 15 99970 96
2007-07-03 12:04 51°28.224 3°3.51 8 5 14.8 99970 96
2007-07-03 12:05 51°28.223 3°3.513 8.4 16 14.7 99970 96
2007-07-03 12:06 51°28.221 3°3.517 8.4 15 14.8 99980 97
2007-07-03 12:07 51°28.207 3°3.544 8.2 4 14.8 99980 97
2007-07-03 12:08 51°28.15 3°3.666 9.4 5 14.7 99970 97
2007-07-03 12:09 51°28.086 3°3.888 11 355 14.8 99970 97
2007-07-03 12:10 51°28.005 3°4.126 12 356 14.8 99950 98
2007-07-03 12:11 51°27.922 3°4.37 10.5 359 14.8 99960 98
2007-07-03 12:12 51°27.837 3°4.617 11.5 1 14.8 99960 97
2007-07-03 12:13 51°27.746 3°4.882 10.4 355 14.8 99960 98
2007-07-03 12:14 51°27.656 3°5.151 11.6 359 14.8 99960 98
2007-07-03 12:15 51°27.563 3°5.42 11.5 358 14.8 99960 98
2007-07-03 12:16 51°27.465 3°5.688 11.9 360 14.8 99960 98
2007-07-03 12:17 51°27.367 3°5.954 11.8 357 14.9 99970 98
2007-07-03 12:18 51°27.267 3°6.219 11.6 1 15 99960 98
2007-07-03 12:19 51°27.169 3°6.484 10.2 5 15 99960 98
2007-07-03 12:20 51°27.068 3°6.753 12.2 4 15.1 99960 98
2007-07-03 12:21 51°26.964 3°7.022 11.8 5 15.1 99960 97
2007-07-03 12:22 51°26.862 3°7.3 10.4 5 15.2 99960 96
2007-07-03 12:23 51°26.761 3°7.568 11 6 15.2 99970 95
2007-07-03 12:24 51°26.658 3°7.847 10.3 7 15.2 99970 95
2007-07-03 12:25 51°26.573 3°8.12 11 11 15.2 99960 94
2007-07-03 12:26 51°26.492 3°8.276 9.8 1 15.2 99970 94
2007-07-03 12:27 51°26.428 3°8.366 9.5 6 15.2 99960 94
2007-07-03 12:28 51°26.401 3°8.409 7.9 10 15.2 99970 94
2007-07-03 12:29 51°26.4 3°8.424 9.9 18 15.2 99960 94
2007-07-03 12:30 51°26.393 3°8.444 9.7 18 15.3 99960 94
2007-07-03 12:31 51°26.385 3°8.47 9.2 21 15.3 99960 94
2007-07-03 12:32 51°26.377 3°8.497 9.8 17 15.3 99960 94
2007-07-03 12:33 51°26.368 3°8.527 9.1 18 15.3 99960 94
2007-07-03 12:34 51°26.359 3°8.556 9.8 16 15.3 99960 94
2007-07-03 12:35 51°26.35 3°8.586 10.5 14 15.4 99960 94
2007-07-03 12:36 51°26.341 3°8.618 11 12 15.4 99960 93
2007-07-03 12:37 51°26.334 3°8.65 10.4 15 15.4 99960 92
2007-07-03 12:38 51°26.326 3°8.682 8.4 16 15.4 99960 91
2007-07-03 12:39 51°26.318 3°8.715 10.3 13 15.6 99960 92
2007-07-03 12:40 51°26.31 3°8.75 9.2 17 15.5 99960 91
2007-07-03 12:41 51°26.302 3°8.785 10.1 14 15.5 99950 91
2007-07-03 12:42 51°26.295 3°8.822 9.9 11 15.5 99950 91
2007-07-03 12:43 51°26.287 3°8.858 9.8 12 15.5 99960 91
2007-07-03 12:44 51°26.274 3°8.903 9.6 9 15.6 99950 91
2007-07-03 12:45 51°26.221 3°9.015 9.5 7 15.6 99950 92
2007-07-03 12:46 51°26.157 3°9.259 8.8 2 15.6 99940 91
2007-07-03 12:47 51°26.095 3°9.575 8.7 5 15.6 99950 91
2007-07-03 12:48 51°26.034 3°9.932 10.4 6 15.7 99960 91
2007-07-03 12:49 51°25.961 3°10.302 8.4 3 15.7 99950 90
2007-07-03 12:50 51°25.863 3°10.653 10.7 353 15.7 99950 90
2007-07-03 12:51 51°25.692 3°10.92 14.2 351 15.7 99930 89
2007-07-03 12:52 51°25.504 3°11.16 14 351 15.7 99920 88
2007-07-03 12:53 51°25.312 3°11.37 13.6 348 15.7 99920 87
2007-07-03 12:54 51°25.109 3°11.555 14.1 347 15.7 99930 87
2007-07-03 12:55 51°24.902 3°11.722 13.6 348 15.8 99930 87
2007-07-03 12:56 51°24.693 3°11.888 12.8 347 15.8 99940 88
2007-07-03 12:57 51°24.493 3°12.059 13.1 347 15.8 99930 88
2007-07-03 12:58 51°24.294 3°12.24 12.6 348 15.8 99930 87
2007-07-03 12:59 51°24.099 3°12.413 11.7 344 15.9 99930 88
2007-07-03 13:00 51°23.901 3°12.591 13.7 347 15.9 99920 88
2007-07-03 13:01 51°23.702 3°12.767 13.4 347 15.9 99910 88
2007-07-03 13:02 51°23.504 3°12.944 13.9 346 15.9 99920 88
2007-07-03 13:03 51°23.305 3°13.121 13.2 347 15.8 99910 88
2007-07-03 13:04 51°23.106 3°13.301 13.3 350 15.8 99920 89
2007-07-03 13:05 51°22.918 3°13.411 12.6 340 15.8 99920 90
2007-07-03 13:06 51°22.806 3°13.389 9.9 327 15.6 99940 89
2007-07-03 13:07 51°22.74 3°13.385 8.1 330 15.6 99920 90
2007-07-03 13:08 51°22.703 3°13.379 7 316 15.5 99910 90
2007-07-03 13:09 51°22.65 3°13.332 9.4 317 15.5 99890 91
2007-07-03 13:10 51°22.615 3°13.269 8.1 234 15.4 99900 91
2007-07-03 13:11 51°22.603 3°13.23 7.9 34 15.4 99920 91
2007-07-03 13:12 51°22.597 3°13.228 7.7 33 15.4 99930 91
2007-07-03 13:13 51°22.593 3°13.251 8.1 34 15.4 99920 91
2007-07-03 13:14 51°22.595 3°13.29 5.8 35 15.4 99910 91
2007-07-03 13:15 51°22.599 3°13.341 7.1 235 15.4 99930 91
2007-07-03 13:16 51°22.605 3°13.398 6.6 236 15.4 99930 91
2007-07-03 13:17 51°22.612 3°13.419 8.8 34 15.4 99920 92
2007-07-03 13:18 51°22.608 3°13.221 10.4 319 15.4 99900 91
2007-07-03 13:19 51°22.557 3°12.957 11.2 320 15.5 99900 92
2007-07-03 13:20 51°22.522 3°12.679 11.9 317 15.5 99890 92
2007-07-03 13:21 51°22.493 3°12.409 10.8 316 15.5 99880 93
2007-07-03 13:22 51°22.463 3°12.135 12.7 317 15.5 99880 93
2007-07-03 13:23 51°22.436 3°11.861 11.2 316 15.5 99880 93
2007-07-03 13:24 51°22.411 3°11.584 11.9 315 15.5 99880 93
2007-07-03 13:25 51°22.449 3°11.304 10.2 40 15.4 99880 93
2007-07-03 13:26 51°22.505 3°11.031 11.4 40 15.4 99880 93
2007-07-03 13:27 51°22.553 3°10.748 10.4 34 15.3 99880 93
2007-07-03 13:28 51°22.552 3°10.458 12 320 15.3 99880 93
2007-07-03 13:29 51°22.458 3°10.208 12.7 322 15.3 99880 94
2007-07-03 13:30 51°22.375 3°9.96 10.7 319 15.4 99870 95
2007-07-03 13:31 51°22.332 3°9.683 11.9 319 15.3 99870 95
2007-07-03 13:32 51°22.293 3°9.402 12 319 15.3 99870 95
2007-07-03 13:33 51°22.256 3°9.126 13.4 318 15.3 99880 95
2007-07-03 13:34 51°22.219 3°8.85 11.9 316 15.3 99880 96
2007-07-03 13:35 51°22.183 3°8.571 11.6 318 15.3 99880 96
2007-07-03 13:36 51°22.146 3°8.291 13.1 318 15.3 99890 96
2007-07-03 13:37 51°22.108 3°8.004 12.3 319 15.3 99880 96
2007-07-03 13:38 51°22.067 3°7.722 13.3 318 15.3 99890 96
2007-07-03 13:39 51°22.021 3°7.447 12.1 317 15.4 99880 96
2007-07-03 13:40 51°21.967 3°7.165 13.2 321 15.4 99890 96
2007-07-03 13:41 51°21.917 3°6.891 11.5 320 15.5 99880 96
2007-07-03 13:42 51°21.867 3°6.612 11.1 320 15.5 99880 96
2007-07-03 13:43 51°21.814 3°6.335 11.6 319 15.5 99880 96
2007-07-03 13:44 51°21.753 3°6.065 12.7 323 15.5 99880 96
2007-07-03 13:45 51°21.693 3°5.796 12.6 322 15.5 99870 94
2007-07-03 13:46 51°21.632 3°5.527 13.2 321 15.5 99880 94
2007-07-03 13:47 51°21.571 3°5.251 10.5 321 15.5 99870 94
2007-07-03 13:48 51°21.513 3°4.986 12.8 323 15.6 99870 93
2007-07-03 13:49 51°21.452 3°4.71 11.7 326 15.6 99870 93
2007-07-03 13:50 51°21.393 3°4.437 13.2 324 15.5 99870 93
2007-07-03 13:51 51°21.335 3°4.17 10.8 324 15.5 99870 94
2007-07-03 13:52 51°21.277 3°3.894 11 324 15.5 99870 94
2007-07-03 13:53 51°21.22 3°3.629 10.8 321 15.5 99860 94
2007-07-03 13:54 51°21.162 3°3.357 11.8 322 15.4 99870 94
2007-07-03 13:55 51°21.099 3°3.08 12.1 320 15.4 99860 95
2007-07-03 13:56 51°21.038 3°2.814 11.3 320 15.4 99860 95
2007-07-03 13:57 51°20.979 3°2.538 12 321 15.4 99870 95
2007-07-03 13:58 51°20.919 3°2.268 11.2 322 15.4 99870 95
2007-07-03 13:59 51°20.86 3°1.999 11 322 15.4 99880 95
2007-07-03 14:00 51°20.8 3°1.728 10.3 319 15.3 99870 94
2007-07-03 14:01 51°20.739 3°1.453 11.5 322 15.3 99860 94
2007-07-03 14:02 51°20.677 3°1.176 11.8 323 15.3 99860 93
2007-07-03 14:03 51°20.616 3°0.895 11.1 323 15.3 99860 92
2007-07-03 14:04 51°20.554 3°0.614 10.5 323 15.4 99850 92
2007-07-03 14:05 51°20.49 3°0.327 10 319 15.3 99840 92
2007-07-03 14:06 51°20.429 3°0.047 10.9 321 15.4 99850 92
2007-07-03 14:07 51°20.368 2°59.765 9.5 320 15.4 99850 92
2007-07-03 14:08 51°20.305 2°59.477 10.7 322 15.4 99860 92
2007-07-03 14:09 51°20.246 2°59.195 11.1 322 15.3 99860 90
2007-07-03 14:10 51°20.187 2°58.915 11.4 319 15.3 99860 89
2007-07-03 14:11 51°20.124 2°58.627 10.3 319 15.3 99860 86
2007-07-03 14:12 51°20.066 2°58.346 10.1 319 15.3 99860 85
2007-07-03 14:13 51°20.005 2°58.062 10.4 319 15.4 99860 85
2007-07-03 14:14 51°19.944 2°57.77 8.6 319 15.4 99850 85
2007-07-03 14:15 51°19.884 2°57.486 10.8 319 15.4 99850 85
2007-07-03 14:16 51°19.824 2°57.198 10.6 316 15.5 99850 85
2007-07-03 14:17 51°19.764 2°56.907 10.1 317 15.5 99850 86
2007-07-03 14:18 51°19.703 2°56.611 10.4 316 15.5 99840 86
2007-07-03 14:19 51°19.644 2°56.323 10.7 317 15.5 99850 86
2007-07-03 14:20 51°19.583 2°56.031 10.8 316 15.5 99850 86
2007-07-03 14:21 51°19.523 2°55.733 9.2 316 15.5 99850 86
2007-07-03 14:22 51°19.463 2°55.444 10.1 316 15.5 99850 87
2007-07-03 14:23 51°19.402 2°55.146 9.4 315 15.5 99840 87
2007-07-03 14:24 51°19.343 2°54.857 11.1 317 15.5 99840 86
2007-07-03 14:25 51°19.282 2°54.564 10.8 318 15.5 99850 86
2007-07-03 14:26 51°19.221 2°54.263 10.8 321 15.7 99850 86
2007-07-03 14:27 51°19.16 2°53.972 10.2 319 15.7 99840 86
2007-07-03 14:28 51°19.099 2°53.676 9.2 318 15.7 99850 86
2007-07-03 14:29 51°19.038 2°53.381 11.2 318 15.8 99840 87
2007-07-03 14:30 51°18.976 2°53.082 9.5 321 15.8 99860 86
2007-07-03 14:31 51°18.916 2°52.793 10.5 320 15.8 99860 87
2007-07-03 14:32 51°18.858 2°52.497 11.2 318 15.9 99860 87
2007-07-03 14:33 51°18.796 2°52.199 10.6 319 15.9 99860 88
2007-07-03 14:34 51°18.729 2°51.917 10.5 318 15.8 99860 88
2007-07-03 14:35 51°18.66 2°51.623 10.4 318 15.9 99860 88
2007-07-03 14:36 51°18.595 2°51.339 10 318 15.9 99850 89
2007-07-03 14:37 51°18.548 2°51.168 7.6 316 15.8 99870 88
2007-07-03 14:38 51°18.527 2°51.077 6.8 316 15.9 99870 88
2007-07-03 14:39 51°18.513 2°51.027 7.2 316 15.8 99870 88
2007-07-03 14:40 51°18.503 2°51 5.1 326 15.8 99870 89
2007-07-03 14:41 51°18.503 2°51.015 5.4 331 15.8 99880 89
2007-07-03 14:42 51°18.507 2°51.044 5 342 15.8 99870 89
2007-07-03 14:43 51°18.516 2°51.076 5.1 338 15.8 99870 88
2007-07-03 14:44 51°18.527 2°51.111 4.6 337 15.8 99880 88
2007-07-03 14:45 51°18.541 2°51.145 3.7 342 15.9 99880 88
2007-07-03 14:46 51°18.54 2°51.183 6.1 347 15.8 99880 87
2007-07-03 14:47 51°18.464 2°51.31 6.8 351 15.7 99870 87
2007-07-03 14:48 51°18.345 2°51.552 8.3 350 15.6 99870 89
2007-07-03 14:49 51°18.201 2°51.814 8.9 349 15.5 99860 89
2007-07-03 14:50 51°18.05 2°52.06 8.7 344 15.5 99860 89
2007-07-03 14:51 51°17.896 2°52.318 8.3 342 15.5 99860 89
2007-07-03 14:52 51°17.742 2°52.555 8.2 342 15.6 99860 89
2007-07-03 14:53 51°17.568 2°52.766 8.4 341 15.6 99870 89
2007-07-03 14:54 51°17.393 2°52.964 7.9 340 15.7 99870 88
2007-07-03 14:55 51°17.217 2°53.157 7.9 341 15.8 99860 88
2007-07-03 14:56 51°17.041 2°53.339 7.8 340 15.9 99860 88
2007-07-03 14:57 51°16.863 2°53.547 7.4 342 16 99860 88
2007-07-03 14:58 51°16.704 2°53.795 8.7 340 16.2 99860 88
2007-07-03 14:59 51°16.59 2°54.031 5.6 351 16.3 99860 88
2007-07-03 15:00 51°16.537 2°54.253 5.5 353 16.3 99870 87
2007-07-03 15:01 51°16.496 2°54.38 5.5 347 16.3 99870 87
2007-07-03 15:02 51°16.457 2°54.432 5.6 341 16.4 99870 87
2007-07-03 15:03 51°16.408 2°54.466 5.9 341 16.4 99880 86
2007-07-03 15:04 51°16.365 2°54.485 5.4 340 16.5 99880 86
2007-07-03 15:05 51°16.322 2°54.479 5.8 338 16.7 99880 86
2007-07-03 15:06 51°16.291 2°54.468 5.9 339 16.7 99870 85
2007-07-03 15:07 51°16.272 2°54.457 4.4 333 16.8 99870 83
2007-07-03 15:08 51°16.265 2°54.456 4.5 333 16.8 99880 82
2007-07-03 15:09 51°16.264 2°54.464 3.8 328 16.9 99870 82
2007-07-03 15:10 51°16.268 2°54.479 3.4 330 16.9 99880 82
2007-07-03 15:11 51°16.274 2°54.502 3.6 331 17 99870 82
2007-07-03 15:12 51°16.278 2°54.522 4.7 336 17.1 99870 82
2007-07-03 15:13 51°16.203 2°54.489 7.9 335 17.2 99870 81
2007-07-03 15:14 51°16.026 2°54.457 10.9 341 17.2 99850 81
2007-07-03 15:15 51°15.822 2°54.466 11.2 340 17.2 99850 78
2007-07-03 15:16 51°15.618 2°54.458 10.2 339 17.1 99850 76
2007-07-03 15:17 51°15.415 2°54.47 9.6 341 17.2 99850 77
2007-07-03 15:18 51°15.211 2°54.482 10.9 344 17.2 99850 76
2007-07-03 15:19 51°15.007 2°54.512 9.1 343 17.1 99840 71
2007-07-03 15:20 51°14.814 2°54.635 8.4 347 17.2 99840 68
2007-07-03 15:21 51°14.626 2°54.797 10.1 340 17.4 99840 72
2007-07-03 15:22 51°14.443 2°54.983 7.9 340 17.4 99840 73
2007-07-03 15:23 51°14.286 2°55.219 8.1 351 17.4 99840 73
2007-07-03 15:24 51°14.128 2°55.414 7.4 334 17.5 99840 74
2007-07-03 15:25 51°14.014 2°55.496 6 348 17.6 99840 70
2007-07-03 15:26 51°13.912 2°55.57 4.7 353 17.7 99840 69
2007-07-03 15:27 51°13.806 2°55.647 5.7 340 17.8 99850 69
2007-07-03 15:28 51°13.717 2°55.783 5.1 337 17.9 99840 69
2007-07-03 15:29 51°13.657 2°55.912 3.4 347 17.9 99840 70
2007-07-03 15:30 51°13.62 2°56.004 2.7 4 17.9 99840 72
2007-07-03 15:31 51°13.603 2°56.069 2.5 357 18 99840 73
2007-07-03 15:32 51°13.598 2°56.09 2.3 5 18 99840 73